createdAt,value
2022-11-30T00:01:49.979Z,1
2022-11-30T00:03:50.047Z,1
2022-11-30T00:05:50.435Z,1
2022-11-30T00:07:54.021Z,1
2022-11-30T00:09:49.992Z,1
2022-11-30T00:11:50.658Z,1
2022-11-30T00:13:54.008Z,1
2022-11-30T00:15:53.982Z,1
2022-11-30T00:17:54.028Z,1
2022-11-30T00:19:50.480Z,1
2022-11-30T00:21:54.277Z,1
2022-11-30T00:23:50.129Z,1
2022-11-30T00:25:50.847Z,1
2022-11-30T00:27:50.546Z,1
2022-11-30T00:29:50.718Z,1
2022-11-30T00:31:50.609Z,1
2022-11-30T00:33:50.117Z,1
2022-11-30T00:36:00.888Z,1
2022-11-30T00:37:51.381Z,1
2022-11-30T00:39:50.643Z,1
2022-11-30T00:41:49.989Z,1
2022-11-30T00:43:50.640Z,1
2022-11-30T00:45:57.372Z,1
2022-11-30T00:47:50.007Z,1
2022-11-30T00:49:50.483Z,1
2022-11-30T00:51:49.943Z,1
2022-11-30T00:53:50.672Z,1
2022-11-30T00:55:50.580Z,1
2022-11-30T00:57:50.744Z,1
2022-11-30T00:59:50.124Z,1
2022-11-30T01:01:55.789Z,1
2022-11-30T01:03:50.484Z,1
2022-11-30T01:05:50.552Z,1
2022-11-30T01:07:49.928Z,1
2022-11-30T01:09:51.013Z,1
2022-11-30T01:11:50.394Z,1
2022-11-30T01:13:54.045Z,1
2022-11-30T01:15:50.604Z,1
2022-11-30T01:17:49.978Z,1
2022-11-30T01:19:53.635Z,1
2022-11-30T01:21:50.917Z,1
2022-11-30T01:23:53.997Z,1
2022-11-30T01:25:49.985Z,1
2022-11-30T01:27:50.054Z,1
2022-11-30T01:31:49.947Z,1
2022-11-30T01:33:50.534Z,1
2022-11-30T01:35:53.919Z,1
2022-11-30T01:37:50.540Z,1
2022-11-30T01:41:57.067Z,1
2022-11-30T01:43:50.029Z,1
2022-11-30T01:45:50.264Z,1
2022-11-30T01:47:50.927Z,1
2022-11-30T01:49:49.929Z,1
2022-11-30T01:51:54.194Z,1
2022-11-30T01:53:56.834Z,1
2022-11-30T01:55:50.713Z,1
2022-11-30T01:57:49.942Z,1
2022-11-30T01:59:57.205Z,1
2022-11-30T02:01:50.415Z,1
2022-11-30T02:03:50.047Z,1
2022-11-30T02:05:49.937Z,1
2022-11-30T02:07:51.135Z,1
2022-11-30T02:11:50.864Z,1
2022-11-30T02:13:50.658Z,1
2022-11-30T02:15:49.974Z,1
2022-11-30T02:17:49.931Z,1
2022-11-30T02:19:53.266Z,1
2022-11-30T02:21:50.227Z,1
2022-11-30T02:23:50.426Z,1
2022-11-30T02:25:54.142Z,1
2022-11-30T02:27:53.702Z,1
2022-11-30T02:29:54.223Z,1
2022-11-30T02:31:50.234Z,1
2022-11-30T02:33:50.078Z,1
2022-11-30T02:35:54.669Z,1
2022-11-30T02:37:50.508Z,1
2022-11-30T02:41:50.002Z,1
2022-11-30T02:43:54.303Z,1
2022-11-30T02:45:57.213Z,1
2022-11-30T02:47:50.032Z,1
2022-11-30T02:49:58.539Z,1
2022-11-30T02:51:50.404Z,1
2022-11-30T02:55:50.965Z,1
2022-11-30T02:57:53.712Z,1
2022-11-30T02:59:53.861Z,1
2022-11-30T03:01:54.182Z,1
2022-11-30T03:03:50.255Z,1
2022-11-30T03:05:57.194Z,1
2022-11-30T03:07:50.228Z,1
2022-11-30T03:09:50.662Z,1
2022-11-30T03:11:50.526Z,1
2022-11-30T03:13:51.124Z,1
2022-11-30T03:15:50.857Z,1
2022-11-30T03:17:51.402Z,1
2022-11-30T03:19:53.910Z,1
2022-11-30T03:21:53.729Z,1
2022-11-30T03:23:50.518Z,1
2022-11-30T03:25:54.158Z,1
2022-11-30T03:27:50.859Z,1
2022-11-30T03:29:50.051Z,1
2022-11-30T03:31:57.021Z,1
2022-11-30T03:33:50.223Z,1
2022-11-30T03:35:50.196Z,1
2022-11-30T03:37:55.294Z,1
2022-11-30T03:39:58.063Z,1
2022-11-30T03:41:51.157Z,1
2022-11-30T03:43:54.093Z,1
2022-11-30T03:45:50.289Z,1
2022-11-30T03:47:50.605Z,1
2022-11-30T03:49:50.978Z,1
2022-11-30T03:51:50.006Z,1
2022-11-30T03:53:53.857Z,1
2022-11-30T03:57:53.910Z,1
2022-11-30T03:59:50.529Z,1
2022-11-30T04:01:50.003Z,1
2022-11-30T04:03:51.037Z,1
2022-11-30T04:05:51.142Z,1
2022-11-30T04:07:54.365Z,1
2022-11-30T04:09:53.246Z,1
2022-11-30T04:11:53.132Z,1
2022-11-30T04:13:49.962Z,1
2022-11-30T04:15:55.152Z,1
2022-11-30T04:17:53.859Z,1
2022-11-30T04:19:53.662Z,1
2022-11-30T04:21:57.443Z,1
2022-11-30T04:23:49.953Z,1
2022-11-30T04:25:50.544Z,1
2022-11-30T04:27:50.764Z,1
2022-11-30T04:29:50.136Z,1
2022-11-30T04:31:50.677Z,1
2022-11-30T04:33:55.715Z,1
2022-11-30T04:35:49.960Z,1
2022-11-30T04:37:50.945Z,1
2022-11-30T04:39:57.954Z,1
2022-11-30T04:41:50.168Z,1
2022-11-30T04:43:50.513Z,1
2022-11-30T04:45:50.234Z,1
2022-11-30T04:47:53.102Z,1
2022-11-30T04:49:54.080Z,1
2022-11-30T04:51:50.241Z,1
2022-11-30T04:53:50.153Z,1
2022-11-30T04:55:54.138Z,1
2022-11-30T04:57:53.713Z,1
2022-11-30T04:59:50.870Z,1
2022-11-30T05:01:50.869Z,1
2022-11-30T05:03:50.075Z,1
2022-11-30T05:05:50.112Z,1
2022-11-30T05:07:50.286Z,1
2022-11-30T05:11:50.568Z,1
2022-11-30T05:13:50.776Z,1
2022-11-30T05:15:50.597Z,1
2022-11-30T05:17:55.487Z,1
2022-11-30T05:19:50.614Z,1
2022-11-30T05:21:50.003Z,1
2022-11-30T05:23:53.744Z,1
2022-11-30T05:25:50.102Z,1
2022-11-30T05:27:50.204Z,1
2022-11-30T05:29:50.093Z,1
2022-11-30T05:31:50.232Z,1
2022-11-30T05:33:56.349Z,1
2022-11-30T05:35:57.231Z,1
2022-11-30T05:37:50.715Z,1
2022-11-30T05:39:50.402Z,1
2022-11-30T05:41:54.613Z,1
2022-11-30T05:43:50.621Z,1
2022-11-30T05:45:50.124Z,1
2022-11-30T05:47:50.521Z,1
2022-11-30T05:49:50.052Z,1
2022-11-30T05:51:55.098Z,1
2022-11-30T05:53:50.090Z,1
2022-11-30T05:55:50.710Z,1
2022-11-30T05:57:50.940Z,1
2022-11-30T05:59:52.397Z,1
2022-11-30T06:01:50.422Z,0
2022-11-30T06:03:50.000Z,0
2022-11-30T06:05:50.588Z,0
2022-11-30T06:07:56.722Z,0
2022-11-30T06:09:50.280Z,0.1
2022-11-30T06:11:50.028Z,0.1
2022-11-30T06:13:53.356Z,0.2
2022-11-30T06:15:50.237Z,0.3
2022-11-30T06:17:51.043Z,0.4
2022-11-30T06:19:53.468Z,0.6
2022-11-30T06:21:57.426Z,0.8
2022-11-30T06:23:50.626Z,1
2022-11-30T06:25:50.998Z,1.7
2022-11-30T06:27:50.727Z,2.5
2022-11-30T06:29:50.411Z,3.5
2022-11-30T06:31:50.052Z,4.7
2022-11-30T06:33:50.719Z,6
2022-11-30T06:35:54.344Z,8.6
2022-11-30T06:40:06.828Z,11
2022-11-30T06:41:54.287Z,16.4
2022-11-30T06:43:50.501Z,17.3
2022-11-30T06:45:50.061Z,23.3
2022-11-30T06:47:51.810Z,27.1
2022-11-30T06:49:57.412Z,31.5
2022-11-30T06:51:51.395Z,27.1
2022-11-30T06:53:50.688Z,40.4
2022-11-30T06:55:50.318Z,51.9
2022-11-30T06:57:50.138Z,57.4
2022-11-30T06:59:54.353Z,73.7
2022-11-30T07:01:50.278Z,81.5
2022-11-30T07:03:51.047Z,94.6
2022-11-30T07:05:50.738Z,85.6
2022-11-30T07:10:04.325Z,94.6
2022-11-30T07:17:22.991Z,121.5
2022-11-30T07:19:27.322Z,121.5
2022-11-30T07:21:27.113Z,148.4
2022-11-30T07:24:55.423Z,164
2022-11-30T07:26:54.696Z,190.6
2022-11-30T07:28:55.302Z,210.6
2022-11-30T07:33:26.520Z,221.4
2022-11-30T07:40:50.218Z,232.8
2022-11-30T07:40:56.852Z,298.9
2022-11-30T07:42:52.996Z,365
2022-11-30T07:44:58.311Z,445.9
2022-11-30T07:46:52.797Z,445.9
2022-11-30T07:48:56.369Z,468.7
2022-11-30T07:50:53.482Z,445.9
2022-11-30T07:52:52.985Z,383.8
2022-11-30T07:54:52.043Z,365
2022-11-30T07:56:52.909Z,347.2
2022-11-30T07:58:52.363Z,347.2
2022-11-30T08:00:53.465Z,445.9
2022-11-30T08:02:52.943Z,445.9
2022-11-30T08:04:52.608Z,445.9
2022-11-30T08:06:56.414Z,445.9
2022-11-30T08:08:52.886Z,424.1
2022-11-30T08:10:53.052Z,445.9
2022-11-30T08:12:52.892Z,468.7
2022-11-30T08:15:19.121Z,445.9
2022-11-30T08:16:52.583Z,424.1
2022-11-30T08:18:56.225Z,424.1
2022-11-30T08:20:53.330Z,424.1
2022-11-30T08:22:53.129Z,424.1
2022-11-30T08:24:56.343Z,445.9
2022-11-30T08:26:52.534Z,492.7
2022-11-30T08:28:56.523Z,492.7
2022-11-30T08:30:53.138Z,492.7
2022-11-30T08:32:53.216Z,601.8
2022-11-30T08:34:53.197Z,632.7
2022-11-30T08:36:54.566Z,665.1
2022-11-30T08:38:53.151Z,772.8
2022-11-30T08:40:53.004Z,772.8
2022-11-30T08:42:52.826Z,699.2
2022-11-30T08:44:59.861Z,665.1
2022-11-30T08:46:53.257Z,665.1
2022-11-30T08:49:12.833Z,699.2
2022-11-30T08:50:55.938Z,699.2
2022-11-30T08:53:03.232Z,665.1
2022-11-30T08:54:53.079Z,699.2
2022-11-30T08:56:57.378Z,699.2
2022-11-30T08:58:52.844Z,699.2
2022-11-30T09:00:56.451Z,699.2
2022-11-30T09:02:52.853Z,699.2
2022-11-30T09:04:52.899Z,665.1
2022-11-30T09:06:53.169Z,665.1
2022-11-30T09:08:59.398Z,632.7
2022-11-30T09:10:53.041Z,544.6
2022-11-30T09:12:57.442Z,632.7
2022-11-30T09:14:57.870Z,699.2
2022-11-30T09:16:53.213Z,665.1
2022-11-30T09:20:52.792Z,699.2
2022-11-30T09:22:53.283Z,735.1
2022-11-30T09:24:53.185Z,665.1
2022-11-30T09:26:53.003Z,632.7
2022-11-30T09:28:56.606Z,665.1
2022-11-30T09:30:55.968Z,735.1
2022-11-30T09:32:52.461Z,665.1
2022-11-30T09:34:53.562Z,699.2
2022-11-30T09:36:56.287Z,812.4
2022-11-30T09:38:52.974Z,943.9
2022-11-30T09:40:52.932Z,897.8
2022-11-30T09:42:53.006Z,943.9
2022-11-30T09:46:52.396Z,812.4
2022-11-30T09:48:56.492Z,772.8
2022-11-30T09:50:56.310Z,943.9
2022-11-30T09:52:53.215Z,1152.9
2022-11-30T09:54:53.077Z,1212
2022-11-30T09:56:52.921Z,1152.9
2022-11-30T09:58:59.629Z,1043.1
2022-11-30T10:00:53.201Z,943.9
2022-11-30T10:02:52.412Z,992.3
2022-11-30T10:04:53.229Z,943.9
2022-11-30T10:06:52.440Z,943.9
2022-11-30T10:08:52.614Z,992.3
2022-11-30T10:10:56.599Z,1043.1
2022-11-30T10:12:59.479Z,1339.4
2022-11-30T10:14:55.949Z,1556.2
2022-11-30T10:16:53.044Z,1719.9
2022-11-30T10:18:56.495Z,1274.1
2022-11-30T10:20:52.989Z,1043.1
2022-11-30T10:22:56.333Z,943.9
2022-11-30T10:24:52.946Z,897.8
2022-11-30T10:26:52.803Z,735.1
2022-11-30T10:28:52.593Z,601.8
2022-11-30T10:30:53.206Z,632.7
2022-11-30T10:32:59.542Z,772.8
2022-11-30T10:34:53.168Z,812.4
2022-11-30T10:36:52.854Z,854.1
2022-11-30T10:38:52.463Z,772.8
2022-11-30T10:40:53.122Z,735.1
2022-11-30T10:42:59.118Z,772.8
2022-11-30T10:44:53.264Z,854.1
2022-11-30T10:46:53.008Z,854.1
2022-11-30T10:48:52.425Z,854.1
2022-11-30T10:50:53.176Z,943.9
2022-11-30T10:52:53.330Z,1096.6
2022-11-30T10:55:00.691Z,1043.1
2022-11-30T10:56:56.414Z,1096.6
2022-11-30T10:58:56.414Z,1096.6
2022-11-30T11:00:55.790Z,1096.6
2022-11-30T11:02:52.910Z,1152.9
2022-11-30T11:04:52.937Z,1152.9
2022-11-30T11:06:56.136Z,1096.6
2022-11-30T11:08:53.057Z,1043.1
2022-11-30T11:10:56.421Z,897.8
2022-11-30T11:12:53.284Z,812.4
2022-11-30T11:14:52.506Z,992.3
2022-11-30T11:16:52.998Z,1212
2022-11-30T11:18:52.922Z,1274.1
2022-11-30T11:20:55.743Z,1339.4
2022-11-30T11:23:00.663Z,1339.4
2022-11-30T11:24:53.088Z,1339.4
2022-11-30T11:26:59.496Z,1408.1
2022-11-30T11:28:52.479Z,1274.1
2022-11-30T11:30:53.122Z,1212
2022-11-30T11:32:53.048Z,1212
2022-11-30T11:34:55.610Z,1152.9
2022-11-30T11:36:59.460Z,1152.9
2022-11-30T11:38:52.926Z,1274.1
2022-11-30T11:40:52.566Z,1408.1
2022-11-30T11:42:52.492Z,1556.2
2022-11-30T11:44:53.073Z,1480.3
2022-11-30T11:46:53.023Z,1480.3
2022-11-30T11:48:57.865Z,1480.3
2022-11-30T11:51:07.341Z,1556.2
2022-11-30T11:52:52.967Z,1719.9
2022-11-30T11:54:56.500Z,1808
2022-11-30T11:58:52.698Z,1808
2022-11-30T12:01:01.209Z,1719.9
2022-11-30T12:02:52.467Z,1556.2
2022-11-30T12:04:53.004Z,1408.1
2022-11-30T12:06:52.901Z,1408.1
2022-11-30T12:08:52.864Z,1408.1
2022-11-30T12:10:56.381Z,1636
2022-11-30T12:12:56.499Z,1900.7
2022-11-30T12:14:52.871Z,1808
2022-11-30T12:16:53.307Z,1480.3
2022-11-30T12:20:53.015Z,1408.1
2022-11-30T12:22:56.476Z,1556.2
2022-11-30T12:24:55.854Z,1480.3
2022-11-30T12:26:52.951Z,1408.1
2022-11-30T12:30:52.928Z,992.3
2022-11-30T12:32:52.973Z,735.1
2022-11-30T12:34:59.747Z,572.5
2022-11-30T12:36:59.564Z,518
2022-11-30T12:38:52.488Z,492.7
2022-11-30T12:40:52.552Z,601.8
2022-11-30T12:42:59.556Z,665.1
2022-11-30T12:44:56.433Z,699.2
2022-11-30T12:46:53.043Z,665.1
2022-11-30T12:48:52.496Z,601.8
2022-11-30T12:50:53.026Z,468.7
2022-11-30T12:54:52.870Z,468.7
2022-11-30T12:56:56.089Z,492.7
2022-11-30T12:58:52.854Z,445.9
2022-11-30T13:02:35.193Z,365
2022-11-30T13:04:36.936Z,330.3
2022-11-30T13:06:36.895Z,284.3
2022-11-30T13:08:29.766Z,330.3
2022-11-30T13:10:32.865Z,347.2
2022-11-30T13:12:33.240Z,365
2022-11-30T13:14:36.904Z,330.3
2022-11-30T13:16:29.804Z,298.9
2022-11-30T13:18:29.483Z,330.3
2022-11-30T13:20:29.744Z,383.8
2022-11-30T13:22:30.014Z,544.6
2022-11-30T13:24:36.837Z,632.7
2022-11-30T13:26:39.662Z,632.7
2022-11-30T13:28:29.768Z,601.8
2022-11-30T13:30:29.233Z,632.7
2022-11-30T13:32:57.166Z,601.8
2022-11-30T13:34:29.871Z,518
2022-11-30T13:36:29.928Z,492.7
2022-11-30T13:38:36.626Z,445.9
2022-11-30T13:40:29.231Z,424.1
2022-11-30T13:42:35.215Z,424.1
2022-11-30T13:44:37.023Z,403.4
2022-11-30T13:46:29.985Z,383.8
2022-11-30T13:48:29.105Z,403.4
2022-11-30T13:50:40.248Z,445.9
2022-11-30T13:52:33.650Z,492.7
2022-11-30T13:54:29.074Z,445.9
2022-11-30T13:56:29.063Z,314.2
2022-11-30T13:58:33.292Z,270.4
2022-11-30T14:00:29.991Z,221.4
2022-11-30T14:04:29.741Z,141.2
2022-11-30T14:06:33.826Z,127.7
2022-11-30T14:08:32.826Z,115.6
2022-11-30T14:12:29.202Z,85.6
2022-11-30T14:14:29.553Z,70.1
2022-11-30T14:16:29.726Z,81.5
2022-11-30T14:18:36.510Z,99.5
2022-11-30T14:20:33.319Z,99.5
2022-11-30T14:22:29.559Z,109.9
2022-11-30T14:24:33.384Z,121.5
2022-11-30T14:26:29.262Z,109.9
2022-11-30T14:28:29.577Z,115.6
2022-11-30T14:30:29.940Z,121.5
2022-11-30T14:32:29.251Z,109.9
2022-11-30T14:34:33.206Z,99.5
2022-11-30T14:36:29.620Z,85.6
2022-11-30T14:38:33.610Z,77.5
2022-11-30T14:40:29.547Z,63.4
2022-11-30T14:42:30.135Z,57.4
2022-11-30T14:44:37.316Z,63.4
2022-11-30T14:46:29.866Z,81.5
2022-11-30T14:48:29.742Z,70.1
2022-11-30T14:50:29.325Z,63.4
2022-11-30T14:52:32.269Z,73.7
2022-11-30T14:54:29.779Z,63.4
2022-11-30T14:56:30.004Z,54.6
2022-11-30T14:58:29.778Z,57.4
2022-11-30T15:00:33.748Z,54.6
2022-11-30T15:02:29.625Z,49.4
2022-11-30T15:04:33.986Z,42.5
2022-11-30T15:06:29.622Z,44.7
2022-11-30T15:08:29.987Z,42.5
2022-11-30T15:10:29.709Z,38.5
2022-11-30T15:12:29.514Z,34.8
2022-11-30T15:14:29.421Z,34.8
2022-11-30T15:16:39.978Z,33.1
2022-11-30T15:18:29.217Z,30
2022-11-30T15:20:29.689Z,25.8
2022-11-30T15:24:30.067Z,16.4
2022-11-30T15:26:29.308Z,11.6
2022-11-30T15:28:36.940Z,7.4
2022-11-30T15:30:29.565Z,5.8
2022-11-30T15:32:30.107Z,5.5
2022-11-30T15:34:33.157Z,5
2022-11-30T15:36:34.160Z,4.3
2022-11-30T15:38:30.724Z,3
2022-11-30T15:40:29.337Z,2.3
2022-11-30T15:42:33.424Z,1.7
2022-11-30T15:44:28.922Z,1.2
2022-11-30T15:46:29.070Z,1
2022-11-30T15:48:33.875Z,0.7
2022-11-30T15:50:32.995Z,0.4
2022-11-30T15:52:29.659Z,0.3
2022-11-30T15:54:30.002Z,0.3
2022-11-30T15:56:28.973Z,0.1
2022-11-30T16:00:37.096Z,0
2022-11-30T16:02:29.822Z,0
2022-11-30T16:04:29.699Z,0
2022-11-30T16:06:29.884Z,0
2022-11-30T16:08:30.124Z,1
2022-11-30T16:10:29.859Z,1
2022-11-30T16:12:30.187Z,1
2022-11-30T16:14:29.675Z,1
2022-11-30T16:16:29.071Z,1
2022-11-30T16:18:29.419Z,1
2022-11-30T16:20:36.148Z,1
2022-11-30T16:22:29.977Z,1
2022-11-30T16:24:37.043Z,1
2022-11-30T16:28:29.570Z,1
2022-11-30T16:30:29.535Z,1
2022-11-30T16:32:40.512Z,1
2022-11-30T16:34:33.886Z,1
2022-11-30T16:36:32.999Z,1
2022-11-30T16:38:37.139Z,1
2022-11-30T16:40:40.198Z,1
2022-11-30T16:42:30.044Z,1
2022-11-30T16:44:29.049Z,1
2022-11-30T16:46:29.471Z,1
2022-11-30T16:48:33.324Z,1
2022-11-30T16:50:29.570Z,1
2022-11-30T16:52:33.737Z,1
2022-11-30T16:54:30.436Z,1
2022-11-30T16:56:29.112Z,1
2022-11-30T16:58:29.585Z,1
2022-11-30T17:00:36.737Z,1
2022-11-30T17:02:34.264Z,1
2022-11-30T17:04:33.107Z,1
2022-11-30T17:06:36.991Z,1
2022-11-30T17:08:29.934Z,1
2022-11-30T17:10:29.706Z,1
2022-11-30T17:12:33.631Z,1
2022-11-30T17:14:29.505Z,1
2022-11-30T17:16:29.674Z,1
2022-11-30T17:18:29.938Z,1
2022-11-30T17:20:30.016Z,1
2022-11-30T17:22:36.914Z,1
2022-11-30T17:24:29.417Z,1
2022-11-30T17:26:29.177Z,1
2022-11-30T17:28:34.178Z,1
2022-11-30T17:30:30.586Z,1
2022-11-30T17:32:29.883Z,1
2022-11-30T17:34:33.539Z,1
2022-11-30T17:36:29.919Z,1
2022-11-30T17:38:29.547Z,1
2022-11-30T17:40:29.956Z,1
2022-11-30T17:42:34.348Z,1
2022-11-30T17:44:29.333Z,1
2022-11-30T17:46:29.646Z,1
2022-11-30T17:48:29.835Z,1
2022-11-30T17:50:32.367Z,1
2022-11-30T17:52:37.455Z,1
2022-11-30T17:54:32.840Z,1
2022-11-30T17:56:30.071Z,1
2022-11-30T17:58:33.855Z,1
2022-11-30T18:00:37.184Z,1
2022-11-30T18:02:29.598Z,1
2022-11-30T18:04:29.155Z,1
2022-11-30T18:06:39.756Z,1
2022-11-30T18:08:29.571Z,1
2022-11-30T18:10:30.003Z,1
2022-11-30T18:12:29.584Z,1
2022-11-30T18:14:29.149Z,1
2022-11-30T18:16:33.495Z,1
2022-11-30T18:18:38.337Z,1
2022-11-30T18:20:29.650Z,1
2022-11-30T18:22:29.582Z,1
2022-11-30T18:26:39.375Z,1
2022-11-30T18:35:51.573Z,1
2022-11-30T18:40:54.531Z,1
2022-11-30T18:42:56.852Z,1
2022-11-30T18:44:56.965Z,1
2022-11-30T18:46:53.425Z,1
2022-11-30T18:48:53.355Z,1
2022-11-30T18:50:56.976Z,1
2022-11-30T18:52:53.130Z,1
2022-11-30T18:55:00.345Z,1
2022-11-30T18:58:56.821Z,1
2022-11-30T19:00:52.896Z,1
2022-11-30T19:04:53.116Z,1
2022-11-30T19:06:53.143Z,1
2022-11-30T19:08:57.025Z,1
2022-11-30T19:10:53.084Z,1
2022-11-30T19:12:53.251Z,1
2022-11-30T19:14:51.418Z,1
2022-11-30T19:16:57.085Z,1
2022-11-30T19:18:52.908Z,1
2022-11-30T19:22:59.321Z,1
2022-11-30T19:24:53.210Z,1
2022-11-30T19:26:52.970Z,1
2022-11-30T19:28:52.972Z,1
2022-11-30T19:30:52.900Z,1
2022-11-30T19:32:53.139Z,1
2022-11-30T19:34:52.878Z,1
2022-11-30T19:36:53.150Z,1
2022-11-30T19:38:56.632Z,1
2022-11-30T19:42:53.061Z,1
2022-11-30T19:45:00.377Z,1
2022-11-30T19:46:53.043Z,1
2022-11-30T19:48:56.927Z,1
2022-11-30T19:51:00.089Z,1
2022-11-30T19:52:52.977Z,1
2022-11-30T19:54:56.579Z,1
2022-11-30T19:56:53.135Z,1
2022-11-30T19:59:02.616Z,1
2022-11-30T20:00:53.087Z,1
2022-11-30T20:02:53.088Z,1
2022-11-30T20:04:53.135Z,1
2022-11-30T20:06:57.125Z,1
2022-11-30T20:08:53.014Z,1
2022-11-30T20:10:53.111Z,1
2022-11-30T20:12:53.211Z,1
2022-11-30T20:15:00.144Z,1
2022-11-30T20:16:56.680Z,1
2022-11-30T20:18:57.095Z,1
2022-11-30T20:20:53.179Z,1
2022-11-30T20:22:53.019Z,1
2022-11-30T20:24:53.134Z,1
2022-11-30T20:26:53.128Z,1
2022-11-30T20:28:53.102Z,1
2022-11-30T20:30:53.945Z,1
2022-11-30T20:34:56.946Z,1
2022-11-30T20:37:00.185Z,1
2022-11-30T20:38:56.933Z,1
2022-11-30T20:42:51.990Z,1
2022-11-30T20:44:53.077Z,1
2022-11-30T20:46:53.979Z,1
2022-11-30T20:48:53.025Z,1
2022-11-30T20:51:21.970Z,1
2022-11-30T20:52:52.930Z,1
2022-11-30T20:54:53.003Z,1
2022-11-30T20:56:53.020Z,1
2022-11-30T20:58:52.937Z,1
2022-11-30T21:00:53.071Z,1
2022-11-30T21:02:57.159Z,1
2022-11-30T21:04:53.162Z,1
2022-11-30T21:06:53.559Z,1
2022-11-30T21:08:59.937Z,1
2022-11-30T21:10:59.902Z,1
2022-11-30T21:12:53.024Z,1
2022-11-30T21:14:51.742Z,1
2022-11-30T21:16:53.201Z,1
2022-11-30T21:18:53.150Z,1
2022-11-30T21:20:57.146Z,1
2022-11-30T21:22:59.866Z,1
2022-11-30T21:24:51.849Z,1
2022-11-30T21:26:53.271Z,1
2022-11-30T21:28:56.986Z,1
2022-11-30T21:30:53.002Z,1
2022-11-30T21:32:53.112Z,1
2022-11-30T21:34:53.131Z,1
2022-11-30T21:36:53.278Z,1
2022-11-30T21:38:53.544Z,1
2022-11-30T21:40:56.883Z,1
2022-11-30T21:42:52.900Z,1
2022-11-30T21:44:56.819Z,1
2022-11-30T21:46:59.434Z,1
2022-11-30T21:48:56.676Z,1
2022-11-30T21:50:56.680Z,1
2022-11-30T21:54:53.146Z,1
2022-11-30T21:56:59.126Z,1
2022-11-30T21:58:57.090Z,1
2022-11-30T22:01:00.311Z,1
2022-11-30T22:02:53.023Z,1
2022-11-30T22:04:52.959Z,1
2022-11-30T22:06:59.292Z,1
2022-11-30T22:08:53.010Z,1
2022-11-30T22:11:00.027Z,1
2022-11-30T22:12:53.089Z,1
2022-11-30T22:14:56.904Z,1
2022-11-30T22:16:53.560Z,1
2022-11-30T22:18:52.974Z,1
2022-11-30T22:21:00.186Z,1
2022-11-30T22:22:56.456Z,1
2022-11-30T22:24:56.996Z,1
2022-11-30T22:26:53.213Z,1
2022-11-30T22:28:53.296Z,1
2022-11-30T22:30:53.362Z,1
2022-11-30T22:32:53.034Z,1
2022-11-30T22:34:53.149Z,1
2022-11-30T22:36:53.009Z,1
2022-11-30T22:38:53.202Z,1
2022-11-30T22:40:53.118Z,1
2022-11-30T22:42:53.087Z,1
2022-11-30T22:46:53.864Z,1
2022-11-30T22:48:53.164Z,1
2022-11-30T22:50:53.005Z,1
2022-11-30T22:54:53.228Z,1
2022-11-30T22:56:53.297Z,1
2022-11-30T22:58:59.828Z,1
2022-11-30T23:00:56.904Z,1
2022-11-30T23:02:56.831Z,1
2022-11-30T23:04:57.309Z,1
2022-11-30T23:06:53.117Z,1
2022-11-30T23:08:56.973Z,1
2022-11-30T23:10:53.227Z,1
2022-11-30T23:12:59.354Z,1
2022-11-30T23:14:53.129Z,1
2022-11-30T23:16:53.163Z,1
2022-11-30T23:18:53.284Z,1
2022-11-30T23:20:52.987Z,1
2022-11-30T23:22:53.478Z,1
2022-11-30T23:25:00.568Z,1
2022-11-30T23:26:56.668Z,1
2022-11-30T23:29:00.218Z,1
2022-11-30T23:30:56.573Z,1
2022-11-30T23:33:00.190Z,1
2022-11-30T23:34:56.308Z,1
2022-11-30T23:36:56.963Z,1
2022-11-30T23:38:52.902Z,1
2022-11-30T23:40:53.270Z,1
2022-11-30T23:42:51.659Z,1
2022-11-30T23:44:57.155Z,1
2022-11-30T23:48:53.479Z,1
2022-11-30T23:50:53.100Z,1
2022-11-30T23:52:53.246Z,1
2022-11-30T23:54:51.243Z,1
2022-11-30T23:56:56.913Z,1
